createdAt,value
2022-07-29T00:00:31.776Z,38.92
2022-07-29T00:04:47.833Z,39.28
2022-07-29T00:09:04.013Z,39.35
2022-07-29T00:13:32.070Z,39.59
2022-07-29T00:17:49.042Z,39.94
2022-07-29T00:22:05.106Z,39.71
2022-07-29T00:26:21.086Z,39.31
2022-07-29T00:30:37.138Z,39.84
2022-07-29T00:35:12.109Z,39.68
2022-07-29T00:39:28.231Z,40.08
2022-07-29T00:43:45.284Z,40.41
2022-07-29T00:48:01.681Z,40.67
2022-07-29T00:52:17.732Z,40.63
2022-07-29T00:56:34.664Z,40.56
2022-07-29T01:00:50.894Z,40.92
2022-07-29T01:05:08.013Z,40.67
2022-07-29T01:09:35.059Z,40.96
2022-07-29T01:14:01.510Z,41.11
2022-07-29T01:18:29.032Z,41.68
2022-07-29T01:22:51.950Z,41.78
2022-07-29T01:27:25.189Z,41.79
2022-07-29T01:31:58.696Z,41.62
2022-07-29T01:36:24.716Z,41.42
2022-07-29T01:40:48.967Z,41.13
2022-07-29T01:45:27.353Z,41.47
2022-07-29T01:49:47.922Z,41.54
2022-07-29T01:54:15.676Z,41.35
2022-07-29T01:58:33.968Z,41.46
2022-07-29T02:02:51.658Z,41.51
2022-07-29T02:07:11.444Z,41.34
2022-07-29T02:11:27.677Z,41.52
2022-07-29T02:15:44.740Z,41.66
2022-07-29T02:20:04.059Z,42.29
2022-07-29T02:24:20.212Z,42.15
2022-07-29T02:28:36.455Z,42.47
2022-07-29T02:32:52.840Z,42.24
2022-07-29T02:37:11.220Z,42.91
2022-07-29T02:41:43.423Z,42.75
2022-07-29T02:46:00.566Z,42.49
2022-07-29T02:50:33.700Z,42.30
2022-07-29T02:54:59.921Z,42.96
2022-07-29T02:59:19.296Z,43.35
2022-07-29T03:03:38.395Z,43.24
2022-07-29T03:08:05.387Z,43.87
2022-07-29T03:12:21.780Z,43.56
2022-07-29T03:16:41.257Z,43.79
2022-07-29T03:20:57.661Z,43.22
2022-07-29T03:25:15.256Z,43.94
2022-07-29T03:29:33.104Z,44.21
2022-07-29T03:33:50.193Z,43.82
2022-07-29T03:38:06.339Z,44.17
2022-07-29T03:42:25.469Z,43.90
2022-07-29T03:46:43.161Z,43.84
2022-07-29T03:50:59.343Z,43.77
2022-07-29T03:55:16.202Z,43.93
2022-07-29T03:59:34.940Z,43.53
2022-07-29T04:03:51.215Z,43.71
2022-07-29T04:08:07.727Z,44.01
2022-07-29T04:12:23.766Z,43.77
2022-07-29T04:16:39.872Z,43.75
2022-07-29T04:20:55.977Z,43.71
2022-07-29T04:25:12.165Z,43.77
2022-07-29T04:29:28.291Z,43.56
2022-07-29T04:33:44.342Z,43.52
2022-07-29T04:38:00.415Z,43.73
2022-07-29T04:42:16.387Z,43.08
2022-07-29T04:46:33.896Z,42.81
2022-07-29T04:50:50.052Z,42.71
2022-07-29T04:55:07.150Z,42.65
2022-07-29T04:59:23.680Z,42.41
2022-07-29T05:03:39.661Z,42.03
2022-07-29T05:07:56.333Z,41.66
2022-07-29T05:12:13.035Z,41.41
2022-07-29T05:16:29.080Z,40.85
2022-07-29T05:20:45.271Z,40.60
2022-07-29T05:25:05.574Z,40.75
2022-07-29T05:29:44.795Z,40.42
2022-07-29T05:34:01.675Z,40.08
2022-07-29T05:38:17.825Z,40.20
2022-07-29T05:42:34.047Z,39.22
2022-07-29T05:46:50.174Z,38.95
2022-07-29T05:51:06.253Z,38.30
2022-07-29T05:55:22.216Z,37.87
2022-07-29T05:59:38.790Z,37.62
2022-07-29T06:03:55.124Z,37.69
2022-07-29T06:08:11.136Z,37.05
2022-07-29T06:12:27.530Z,36.55
2022-07-29T06:16:43.866Z,36.02
2022-07-29T06:21:00.016Z,35.98
2022-07-29T06:25:16.166Z,35.61
2022-07-29T06:29:32.263Z,34.58
2022-07-29T06:33:48.316Z,33.98
2022-07-29T06:38:06.339Z,33.13
2022-07-29T06:42:44.943Z,32.38
2022-07-29T06:47:01.573Z,32.33
2022-07-29T06:51:22.444Z,31.76
2022-07-29T06:55:39.505Z,32.72
2022-07-29T06:59:57.608Z,31.65
2022-07-29T07:04:14.971Z,31.59
2022-07-29T07:08:31.371Z,31.71
2022-07-29T07:12:47.352Z,31.28
2022-07-29T07:17:05.202Z,30.90
2022-07-29T07:21:21.221Z,31.05
2022-07-29T07:25:37.673Z,30.52
2022-07-29T07:29:55.029Z,29.98
2022-07-29T07:34:11.028Z,30.04
2022-07-29T07:38:27.059Z,30.26
2022-07-29T07:42:43.116Z,29.44
2022-07-29T07:47:03.983Z,29.99
2022-07-29T07:51:28.252Z,29.40
2022-07-29T07:56:09.526Z,29.32
2022-07-29T08:00:21.587Z,28.75
2022-07-29T08:04:41.532Z,28.41
2022-07-29T08:09:19.469Z,28.29
2022-07-29T08:13:34.010Z,28.18
2022-07-29T08:17:50.113Z,27.95
2022-07-29T08:22:06.258Z,27.77
2022-07-29T08:26:23.709Z,27.84
2022-07-29T08:30:39.760Z,27.18
2022-07-29T08:34:55.784Z,27.38
2022-07-29T08:39:11.915Z,26.52
2022-07-29T08:43:30.199Z,26.18
2022-07-29T08:47:47.337Z,26.43
2022-07-29T08:52:03.790Z,25.47
2022-07-29T08:56:20.599Z,26.19
2022-07-29T09:00:38.437Z,25.81
2022-07-29T09:04:54.642Z,25.67
2022-07-29T09:09:10.763Z,25.12
2022-07-29T09:13:27.037Z,24.42
2022-07-29T09:17:47.880Z,23.76
2022-07-29T09:22:06.358Z,23.57
2022-07-29T09:26:28.764Z,23.67
2022-07-29T09:30:56.604Z,23.05
2022-07-29T09:35:20.443Z,22.76
2022-07-29T09:39:49.655Z,22.56
2022-07-29T09:44:07.092Z,21.82
2022-07-29T09:48:26.201Z,21.49
2022-07-29T09:52:51.260Z,20.95
2022-07-29T09:57:10.747Z,21.27
2022-07-29T10:01:30.288Z,20.26
2022-07-29T10:05:47.291Z,19.56
2022-07-29T10:10:03.445Z,19.43
2022-07-29T10:14:19.818Z,19.86
2022-07-29T10:18:36.404Z,20.57
2022-07-29T10:22:54.291Z,19.91
2022-07-29T10:27:11.118Z,19.99
2022-07-29T10:31:43.229Z,19.90
2022-07-29T10:36:21.133Z,19.34
2022-07-29T10:41:06.660Z,19.19
2022-07-29T10:45:25.050Z,18.75
2022-07-29T10:49:56.399Z,18.17
2022-07-29T10:54:12.670Z,17.81
2022-07-29T10:58:28.673Z,17.16
2022-07-29T11:02:53.307Z,17.39
2022-07-29T11:07:11.713Z,17.22
2022-07-29T11:11:29.748Z,16.72
2022-07-29T11:15:59.075Z,16.53
2022-07-29T11:20:44.280Z,16.22
2022-07-29T11:29:58.834Z,16.76
2022-07-29T11:34:28.174Z,16.91
2022-07-29T11:38:45.848Z,16.65
2022-07-29T11:43:03.127Z,16.54
2022-07-29T11:47:24.364Z,16.28
2022-07-29T11:51:48.121Z,15.65
2022-07-29T11:56:05.132Z,14.54
2022-07-29T12:00:41.778Z,15.40
2022-07-29T12:04:59.596Z,15.55
2022-07-29T12:09:15.759Z,15.33
2022-07-29T12:13:39.844Z,14.94
2022-07-29T12:17:55.955Z,15.28
2022-07-29T12:22:12.316Z,15.23
2022-07-29T12:26:28.382Z,15.09
2022-07-29T12:30:52.183Z,15.11
2022-07-29T12:35:12.370Z,14.51
2022-07-29T12:39:29.195Z,14.82
2022-07-29T12:43:58.248Z,14.23
2022-07-29T12:48:15.023Z,13.73
2022-07-29T12:52:35.831Z,13.93
2022-07-29T12:57:00.765Z,14.26
2022-07-29T13:01:19.261Z,14.20
2022-07-29T13:05:47.164Z,13.99
2022-07-29T13:10:23.853Z,13.96
2022-07-29T13:14:43.408Z,14.17
2022-07-29T13:19:10.416Z,13.62
2022-07-29T13:23:26.433Z,14.29
2022-07-29T13:27:42.506Z,13.86
2022-07-29T13:31:58.711Z,15.12
2022-07-29T13:36:17.245Z,15.13
2022-07-29T13:40:36.388Z,15.26
2022-07-29T13:44:52.836Z,15.79
2022-07-29T13:49:08.892Z,16.20
2022-07-29T13:53:26.973Z,16.26
2022-07-29T13:57:43.365Z,16.87
2022-07-29T14:01:59.773Z,16.80
2022-07-29T14:06:16.239Z,16.81
2022-07-29T14:10:34.316Z,16.92
2022-07-29T14:14:50.485Z,16.51
2022-07-29T14:19:06.487Z,17.17
2022-07-29T14:23:23.603Z,21.10
2022-07-29T14:27:39.714Z,24.45
2022-07-29T14:31:58.254Z,22.33
2022-07-29T14:36:14.384Z,20.77
2022-07-29T14:40:30.581Z,21.32
2022-07-29T14:44:47.017Z,24.42
2022-07-29T14:49:03.100Z,24.00
2022-07-29T14:53:19.169Z,20.60
2022-07-29T14:57:35.157Z,19.07
2022-07-29T15:01:52.076Z,17.30
2022-07-29T15:06:08.276Z,15.98
2022-07-29T15:10:24.893Z,15.55
2022-07-29T15:14:40.958Z,15.77
2022-07-29T15:19:01.264Z,16.13
2022-07-29T15:23:17.532Z,16.34
2022-07-29T15:27:33.503Z,15.75
2022-07-29T15:31:49.660Z,16.02
2022-07-29T15:36:06.313Z,15.02
2022-07-29T15:40:22.747Z,15.19
2022-07-29T15:44:38.771Z,14.62
2022-07-29T15:48:54.827Z,15.02
2022-07-29T15:53:11.013Z,15.62
2022-07-29T15:57:27.172Z,16.10
2022-07-29T16:01:43.240Z,16.19
2022-07-29T16:05:59.865Z,16.86
2022-07-29T16:10:16.017Z,17.34
2022-07-29T16:14:32.045Z,17.18
2022-07-29T16:18:48.334Z,17.75
2022-07-29T16:23:05.586Z,17.96
2022-07-29T16:27:37.699Z,18.44
2022-07-29T16:31:54.538Z,18.79
2022-07-29T16:36:10.783Z,18.43
2022-07-29T16:40:29.413Z,18.46
2022-07-29T16:44:45.498Z,18.26
2022-07-29T16:49:02.102Z,18.49
2022-07-29T16:53:18.441Z,18.83
2022-07-29T16:57:34.482Z,19.66
2022-07-29T17:01:51.329Z,19.22
2022-07-29T17:06:07.454Z,21.20
2022-07-29T17:10:23.779Z,30.94
2022-07-29T17:14:39.814Z,34.34
2022-07-29T17:18:57.792Z,34.03
2022-07-29T17:23:13.905Z,32.95
2022-07-29T17:27:30.207Z,32.64
2022-07-29T17:31:46.347Z,31.80
2022-07-29T17:36:21.138Z,31.42
2022-07-29T17:40:37.174Z,30.96
2022-07-29T17:44:53.326Z,28.96
2022-07-29T17:49:09.426Z,30.00
2022-07-29T17:53:25.476Z,38.05
2022-07-29T17:57:41.586Z,40.14
2022-07-29T18:01:57.628Z,42.83
2022-07-29T18:06:13.831Z,43.86
2022-07-29T18:10:30.422Z,45.64
2022-07-29T18:14:46.483Z,45.75
2022-07-29T18:19:02.607Z,45.60
2022-07-29T18:23:18.727Z,46.78
2022-07-29T18:27:34.785Z,46.35
2022-07-29T18:31:50.874Z,47.33
2022-07-29T18:36:11.619Z,49.17
2022-07-29T18:40:28.368Z,50.13
2022-07-29T18:44:49.209Z,51.45
2022-07-29T18:49:05.521Z,50.75
2022-07-29T18:53:21.810Z,50.63
2022-07-29T18:57:54.271Z,52.37
2022-07-29T19:02:12.602Z,52.38
2022-07-29T19:06:28.805Z,52.60
2022-07-29T19:10:45.345Z,52.44
2022-07-29T19:15:01.712Z,52.61
2022-07-29T19:19:17.718Z,53.52
2022-07-29T19:24:01.920Z,52.17
2022-07-29T19:28:10.760Z,53.24
2022-07-29T19:32:26.743Z,51.17
2022-07-29T19:36:42.875Z,49.44
2022-07-29T19:40:59.040Z,49.86
2022-07-29T19:45:15.109Z,50.38
2022-07-29T19:49:31.384Z,50.44
2022-07-29T19:53:49.970Z,49.67
2022-07-29T19:58:06.833Z,50.98
2022-07-29T20:02:24.740Z,50.65
2022-07-29T20:06:43.338Z,50.05
2022-07-29T20:10:59.344Z,50.53
2022-07-29T20:15:16.563Z,50.68
2022-07-29T20:19:34.138Z,50.57
2022-07-29T20:23:50.170Z,50.29
2022-07-29T20:28:06.223Z,50.38
2022-07-29T20:32:22.289Z,49.29
2022-07-29T20:36:38.345Z,50.03
2022-07-29T20:40:58.581Z,49.42
2022-07-29T20:45:14.544Z,47.64
2022-07-29T20:49:31.083Z,47.80
2022-07-29T20:53:47.727Z,47.38
2022-07-29T20:58:03.794Z,46.80
2022-07-29T21:02:19.901Z,47.11
2022-07-29T21:06:35.973Z,47.78
2022-07-29T21:10:52.898Z,48.71
2022-07-29T21:15:13.269Z,48.11
2022-07-29T21:19:29.199Z,48.24
2022-07-29T21:23:46.100Z,48.61
2022-07-29T21:28:20.815Z,47.62
2022-07-29T21:32:36.976Z,47.72
2022-07-29T21:36:52.996Z,47.75
2022-07-29T21:41:10.900Z,48.34
2022-07-29T21:45:26.890Z,48.89
2022-07-29T21:49:42.911Z,49.30
2022-07-29T21:53:59.003Z,48.57
2022-07-29T21:58:17.985Z,48.79
2022-07-29T22:02:34.059Z,49.00
2022-07-29T22:06:50.153Z,49.13
2022-07-29T22:11:06.183Z,48.90
2022-07-29T22:15:22.671Z,48.53
2022-07-29T22:19:39.752Z,49.11
2022-07-29T22:23:55.782Z,48.82
2022-07-29T22:28:11.899Z,48.60
2022-07-29T22:32:27.909Z,48.74
2022-07-29T22:36:43.997Z,47.87
2022-07-29T22:41:01.402Z,47.28
2022-07-29T22:45:17.801Z,46.87
2022-07-29T22:49:33.795Z,47.19
2022-07-29T22:53:49.869Z,47.17
2022-07-29T22:58:05.928Z,47.06
2022-07-29T23:02:21.999Z,46.87
2022-07-29T23:06:38.060Z,47.26
2022-07-29T23:10:54.056Z,47.47
2022-07-29T23:15:10.179Z,47.81
2022-07-29T23:19:26.281Z,47.58
2022-07-29T23:23:45.733Z,47.35
2022-07-29T23:28:01.900Z,48.11
2022-07-29T23:32:17.931Z,47.94
2022-07-29T23:36:33.896Z,48.00
2022-07-29T23:40:51.144Z,48.58
2022-07-29T23:45:08.054Z,48.58
2022-07-29T23:49:24.072Z,49.04
2022-07-29T23:53:53.012Z,48.77
2022-07-29T23:58:10.642Z,48.67
